Terminal Aerodrome Forecast
Issued by NWS

Current Version | Previous Version | Text Only | Print | Product List | Glossary Off
Versions: 1 2 3 4 5 6 7 8 9 10 11 12 13 14 15 16 17 18 19 20 21 22

016
FTUS41 KPBZ 300341 AAB
TAFMGW
TAF AMD
KMGW 300341Z 3004/3024 34005KT P6SM BKN009
     FM300800 35003KT 3SM BR OVC007
     FM301200 VRB03KT P6SM OVC015
     FM301400 10005KT P6SM BKN140
     FM302100 13005KT 5SM -RA OVC035
     FM302300 13005KT 2SM -RA BR OVC020=

USA.gov is the U.S. government's official web portal to all federal, state and local government web resources and services.